createdAt,value
2022-10-18T00:00:27.263Z,32.40
2022-10-18T00:03:30.378Z,29.80
2022-10-18T00:06:34.483Z,31.48
2022-10-18T00:09:37.811Z,37.63
2022-10-18T00:12:42.145Z,38.83
2022-10-18T00:15:54.042Z,33.80
2022-10-18T00:18:57.587Z,36.10
2022-10-18T00:22:01.292Z,31.08
2022-10-18T00:25:06.560Z,32.00
2022-10-18T00:28:10.706Z,43.10
2022-10-18T00:31:26.191Z,28.03
2022-10-18T00:34:30.460Z,26.17
2022-10-18T00:37:34.239Z,31.58
2022-10-18T00:40:37.310Z,35.00
2022-10-18T00:43:54.755Z,40.33
2022-10-18T00:47:04.038Z,39.87
2022-10-18T00:50:09.729Z,36.58
2022-10-18T00:53:18.638Z,34.13
2022-10-18T00:56:21.979Z,39.55
2022-10-18T00:59:26.724Z,39.80
2022-10-18T01:02:30.757Z,39.70
2022-10-18T01:05:39.487Z,35.42
2022-10-18T01:09:11.476Z,31.40
2022-10-18T01:12:25.447Z,32.85
2022-10-18T01:16:06.008Z,38.35
2022-10-18T01:23:22.005Z,40.57
2022-10-18T01:26:31.437Z,52.17
2022-10-18T01:29:59.714Z,51.75
2022-10-18T01:33:20.972Z,46.83
2022-10-18T01:36:34.789Z,50.57
2022-10-18T01:39:41.124Z,46.33
2022-10-18T01:42:47.124Z,52.08
2022-10-18T01:45:51.973Z,41.05
2022-10-18T01:48:57.128Z,53.45
2022-10-18T01:52:01.230Z,55.57
2022-10-18T01:55:05.817Z,58.77
2022-10-18T01:58:27.909Z,45.80
2022-10-18T02:01:53.411Z,46.17
2022-10-18T02:05:29.629Z,53.67
2022-10-18T02:08:34.838Z,51.87
2022-10-18T02:11:41.470Z,55.23
2022-10-18T02:14:46.218Z,53.13
2022-10-18T02:17:51.383Z,52.05
2022-10-18T02:20:55.783Z,56.58
2022-10-18T02:24:01.881Z,52.13
2022-10-18T02:27:05.660Z,47.70
2022-10-18T02:30:10.065Z,45.00
2022-10-18T02:33:20.621Z,47.85
2022-10-18T02:36:28.624Z,47.63
2022-10-18T02:39:35.557Z,48.37
2022-10-18T02:42:44.798Z,47.83
2022-10-18T02:45:47.835Z,40.05
2022-10-18T02:48:50.822Z,49.10
2022-10-18T02:51:54.177Z,45.25
2022-10-18T02:54:57.727Z,46.67
2022-10-18T02:58:01.358Z,51.43
2022-10-18T03:01:04.399Z,47.28
2022-10-18T03:04:08.529Z,43.22
2022-10-18T03:07:11.632Z,46.30
2022-10-18T03:10:15.170Z,41.20
2022-10-18T03:13:18.266Z,49.77
2022-10-18T03:16:22.394Z,40.35
2022-10-18T03:19:26.178Z,41.53
2022-10-18T03:22:30.538Z,40.67
2022-10-18T03:25:35.176Z,52.43
2022-10-18T03:28:38.252Z,41.13
2022-10-18T03:31:41.229Z,44.17
2022-10-18T03:34:44.907Z,36.65
2022-10-18T03:37:47.950Z,38.38
2022-10-18T03:40:51.745Z,45.27
2022-10-18T03:43:55.351Z,40.13
2022-10-18T03:46:59.493Z,36.33
2022-10-18T03:50:02.515Z,55.30
2022-10-18T03:53:06.500Z,40.17
2022-10-18T03:56:10.765Z,40.80
2022-10-18T03:59:14.604Z,47.73
2022-10-18T04:02:18.474Z,33.78
2022-10-18T04:05:24.487Z,37.65
2022-10-18T04:08:28.104Z,29.83
2022-10-18T04:11:31.288Z,43.57
2022-10-18T04:14:35.364Z,43.73
2022-10-18T04:17:40.108Z,38.00
2022-10-18T04:20:43.025Z,38.58
2022-10-18T04:23:51.874Z,32.92
2022-10-18T04:26:55.476Z,34.80
2022-10-18T04:29:58.835Z,42.13
2022-10-18T04:33:01.900Z,36.00
2022-10-18T04:36:05.839Z,33.65
2022-10-18T04:39:08.736Z,32.60
2022-10-18T04:42:12.720Z,37.57
2022-10-18T04:45:15.755Z,26.63
2022-10-18T04:48:19.741Z,36.47
2022-10-18T04:51:23.757Z,30.40
2022-10-18T04:54:28.581Z,37.33
2022-10-18T04:57:32.576Z,34.70
2022-10-18T05:00:39.867Z,34.43
2022-10-18T05:03:43.150Z,38.20
2022-10-18T05:06:46.472Z,35.85
2022-10-18T05:09:49.616Z,39.90
2022-10-18T05:12:52.656Z,36.87
2022-10-18T05:15:56.006Z,42.13
2022-10-18T05:18:59.690Z,40.85
2022-10-18T05:22:02.832Z,44.65
2022-10-18T05:25:07.618Z,40.13
2022-10-18T05:28:27.168Z,41.57
2022-10-18T05:31:34.515Z,50.90
2022-10-18T05:34:38.108Z,37.63
2022-10-18T05:37:41.717Z,35.92
2022-10-18T05:40:45.449Z,37.55
2022-10-18T05:43:49.191Z,37.80
2022-10-18T05:46:52.956Z,35.33
2022-10-18T05:49:56.405Z,35.63
2022-10-18T05:53:07.003Z,32.95
2022-10-18T05:56:22.006Z,33.63
2022-10-18T05:59:26.191Z,34.43
2022-10-18T06:02:29.056Z,44.37
2022-10-18T06:05:32.147Z,35.38
2022-10-18T06:08:37.261Z,39.35
2022-10-18T06:11:40.903Z,37.63
2022-10-18T06:14:44.742Z,35.20
2022-10-18T06:17:48.443Z,46.47
2022-10-18T06:21:00.140Z,38.80
2022-10-18T06:24:03.821Z,33.75
2022-10-18T06:27:09.992Z,48.42
2022-10-18T06:30:13.824Z,40.87
2022-10-18T06:33:17.004Z,37.80
2022-10-18T06:36:24.659Z,33.42
2022-10-18T06:39:28.119Z,37.80
2022-10-18T06:42:32.336Z,30.60
2022-10-18T06:45:36.330Z,37.33
2022-10-18T06:48:41.069Z,38.33
2022-10-18T06:51:45.548Z,45.50
2022-10-18T06:54:48.508Z,45.80
2022-10-18T06:57:53.920Z,48.22
2022-10-18T07:00:56.990Z,43.23
2022-10-18T07:04:00.715Z,36.07
2022-10-18T07:07:03.759Z,38.03
2022-10-18T07:10:11.200Z,52.75
2022-10-18T07:13:33.081Z,36.53
2022-10-18T07:16:36.657Z,32.07
2022-10-18T07:19:40.020Z,66.63
2022-10-18T07:22:44.209Z,43.80
2022-10-18T07:25:47.905Z,37.65
2022-10-18T07:28:55.822Z,43.17
2022-10-18T07:31:59.458Z,50.53
2022-10-18T07:35:03.710Z,57.33
2022-10-18T07:38:07.421Z,42.60
2022-10-18T07:41:12.735Z,63.70
2022-10-18T07:44:16.558Z,55.13
2022-10-18T07:47:19.634Z,54.47
2022-10-18T07:50:23.082Z,59.87
2022-10-18T07:53:26.817Z,59.65
2022-10-18T07:56:30.776Z,62.10
2022-10-18T07:59:34.794Z,57.88
2022-10-18T08:02:38.604Z,66.53
2022-10-18T08:05:41.658Z,81.37
2022-10-18T08:08:45.311Z,62.40
2022-10-18T08:11:48.593Z,71.68
2022-10-18T08:14:51.643Z,71.30
2022-10-18T08:17:55.026Z,59.63
2022-10-18T08:20:59.863Z,67.27
2022-10-18T08:24:02.963Z,70.97
2022-10-18T08:27:06.869Z,70.20
2022-10-18T08:30:10.637Z,67.68
2022-10-18T08:33:14.439Z,73.27
2022-10-18T08:36:18.324Z,71.93
2022-10-18T08:39:21.428Z,84.03
2022-10-18T08:42:39.705Z,66.05
2022-10-18T08:45:44.749Z,79.40
2022-10-18T08:48:53.045Z,92.70
2022-10-18T08:51:57.482Z,70.53
2022-10-18T08:55:12.548Z,77.57
2022-10-18T08:58:21.604Z,86.32
2022-10-18T09:01:58.444Z,79.25
2022-10-18T09:05:06.755Z,76.20
2022-10-18T09:08:19.692Z,68.90
2022-10-18T09:11:47.872Z,77.20
2022-10-18T09:15:22.136Z,77.10
2022-10-18T09:18:32.091Z,76.82
2022-10-18T09:21:45.175Z,68.43
2022-10-18T09:25:13.468Z,61.97
2022-10-18T09:28:55.354Z,95.45
2022-10-18T09:32:09.014Z,78.00
2022-10-18T09:35:22.927Z,71.20
2022-10-18T09:38:31.939Z,108.30
2022-10-18T09:41:55.894Z,98.50
2022-10-18T09:45:15.302Z,109.35
2022-10-18T09:48:45.613Z,100.45
2022-10-18T09:51:52.172Z,105.18
2022-10-18T09:55:02.116Z,114.13
2022-10-18T09:58:08.673Z,104.63
2022-10-18T10:01:16.042Z,110.07
2022-10-18T10:04:19.930Z,104.38
2022-10-18T10:07:32.573Z,108.88
2022-10-18T10:10:41.195Z,95.30
2022-10-18T10:13:45.528Z,98.73
2022-10-18T10:16:53.173Z,108.53
2022-10-18T10:20:24.132Z,141.85
2022-10-18T10:23:33.074Z,160.95
2022-10-18T10:26:39.892Z,151.53
2022-10-18T10:29:46.980Z,154.87
2022-10-18T10:32:52.717Z,140.32
2022-10-18T10:36:00.926Z,136.57
2022-10-18T10:39:12.052Z,135.90
2022-10-18T10:42:16.781Z,139.07
2022-10-18T10:45:22.873Z,138.90
2022-10-18T10:48:31.119Z,165.52
2022-10-18T10:51:41.027Z,151.02
2022-10-18T10:54:51.357Z,134.48
2022-10-18T10:57:58.399Z,106.77
2022-10-18T11:01:21.562Z,109.97
2022-10-18T11:04:33.968Z,115.72
2022-10-18T11:07:49.043Z,125.05
2022-10-18T11:11:23.147Z,112.78
2022-10-18T11:14:34.746Z,132.43
2022-10-18T11:17:56.761Z,107.57
2022-10-18T11:21:14.465Z,118.47
2022-10-18T11:24:19.015Z,117.70
2022-10-18T11:27:26.386Z,122.20
2022-10-18T11:30:52.764Z,106.37
2022-10-18T11:34:15.978Z,108.03
2022-10-18T11:37:38.959Z,100.25
2022-10-18T11:41:06.611Z,111.05
2022-10-18T11:44:35.172Z,108.78
2022-10-18T11:47:53.701Z,107.30
2022-10-18T11:51:10.036Z,110.80
2022-10-18T11:54:29.442Z,98.45
2022-10-18T11:57:52.697Z,157.18
2022-10-18T12:01:28.703Z,209.70
2022-10-18T12:04:53.126Z,184.83
2022-10-18T12:08:12.677Z,180.30
2022-10-18T12:11:26.721Z,168.82
2022-10-18T12:14:59.225Z,149.18
2022-10-18T12:18:15.928Z,125.80
2022-10-18T12:21:25.896Z,110.30
2022-10-18T12:24:34.535Z,115.80
2022-10-18T12:28:03.570Z,109.72
2022-10-18T12:31:31.003Z,120.28
2022-10-18T12:34:56.366Z,121.32
2022-10-18T12:38:34.640Z,130.67
2022-10-18T12:41:42.054Z,136.00
2022-10-18T12:44:50.397Z,165.52
2022-10-18T12:48:23.612Z,185.73
2022-10-18T12:51:31.138Z,204.05
2022-10-18T12:54:41.399Z,196.40
2022-10-18T12:58:07.586Z,211.57
2022-10-18T13:01:16.146Z,185.23
2022-10-18T13:04:36.693Z,194.63
2022-10-18T13:07:45.312Z,183.75
2022-10-18T13:11:10.077Z,159.13
2022-10-18T13:14:48.311Z,164.13
2022-10-18T13:18:27.660Z,145.73
2022-10-18T13:21:45.698Z,120.65
2022-10-18T13:25:06.077Z,101.03
2022-10-18T13:28:19.090Z,78.73
2022-10-18T13:31:39.725Z,74.27
2022-10-18T13:34:44.066Z,76.32
2022-10-18T13:38:00.259Z,87.32
2022-10-18T13:41:09.038Z,75.70
2022-10-18T13:44:34.945Z,77.10
2022-10-18T13:47:39.707Z,78.33
2022-10-18T13:50:45.312Z,84.05
2022-10-18T13:54:39.608Z,81.47
2022-10-18T13:58:23.817Z,89.93
2022-10-18T14:02:30.687Z,64.13
2022-10-18T14:05:54.583Z,54.40
2022-10-18T14:09:40.196Z,58.45
2022-10-18T14:12:55.363Z,70.47
2022-10-18T14:16:26.794Z,71.28
2022-10-18T14:19:47.313Z,71.87
2022-10-18T14:23:14.806Z,67.60
2022-10-18T14:26:22.128Z,70.10
2022-10-18T14:29:26.895Z,63.47
2022-10-18T14:32:37.042Z,72.43
2022-10-18T14:35:47.829Z,73.17
2022-10-18T14:39:04.669Z,66.57
2022-10-18T14:42:22.811Z,76.75
2022-10-18T14:45:29.577Z,85.13
2022-10-18T14:48:34.411Z,117.68
2022-10-18T14:51:41.707Z,110.00
2022-10-18T14:54:46.445Z,111.63
2022-10-18T14:57:51.794Z,113.93
2022-10-18T15:00:56.867Z,118.22
2022-10-18T15:04:06.852Z,118.05
2022-10-18T15:07:17.649Z,126.33
2022-10-18T15:10:34.352Z,149.77
2022-10-18T15:13:45.444Z,160.55
2022-10-18T15:16:52.056Z,166.93
2022-10-18T15:20:47.446Z,175.60
2022-10-18T15:27:20.197Z,87.87
2022-10-18T15:30:30.373Z,75.88
2022-10-18T15:33:37.227Z,65.30
2022-10-18T15:36:41.047Z,95.03
2022-10-18T15:39:44.421Z,92.70
2022-10-18T15:42:47.493Z,100.63
2022-10-18T15:45:53.436Z,91.43
2022-10-18T15:49:19.948Z,101.18
2022-10-18T15:52:42.223Z,89.95
2022-10-18T15:55:48.932Z,127.30
2022-10-18T15:58:52.507Z,100.80
2022-10-18T16:01:56.166Z,118.18
2022-10-18T16:05:03.843Z,81.43
2022-10-18T16:08:07.444Z,74.90
2022-10-18T16:11:19.363Z,79.03
2022-10-18T16:14:23.348Z,75.13
2022-10-18T16:17:27.349Z,73.88
2022-10-18T16:20:31.373Z,90.90
2022-10-18T16:23:35.037Z,76.85
2022-10-18T16:26:39.185Z,98.90
2022-10-18T16:29:42.512Z,97.00
2022-10-18T16:32:47.310Z,100.28
2022-10-18T16:35:51.070Z,94.13
2022-10-18T16:38:56.107Z,91.22
2022-10-18T16:41:59.762Z,77.57
2022-10-18T16:45:03.125Z,73.40
2022-10-18T16:48:06.794Z,60.72
2022-10-18T16:51:11.682Z,63.42
2022-10-18T16:54:15.361Z,52.65
2022-10-18T16:57:18.220Z,52.20
2022-10-18T17:00:23.656Z,42.43
2022-10-18T17:03:27.942Z,34.05
2022-10-18T17:06:33.483Z,31.92
2022-10-18T17:09:37.573Z,40.45
2022-10-18T17:12:41.279Z,34.70
2022-10-18T17:15:44.593Z,34.33
2022-10-18T17:18:47.598Z,24.35
2022-10-18T17:21:50.825Z,29.30
2022-10-18T17:24:53.737Z,33.50
2022-10-18T17:27:57.817Z,34.83
2022-10-18T17:31:00.897Z,28.23
2022-10-18T17:34:05.595Z,25.52
2022-10-18T17:37:09.654Z,25.30
2022-10-18T17:40:14.268Z,22.80
2022-10-18T17:43:17.923Z,29.43
2022-10-18T17:46:22.006Z,32.63
2022-10-18T17:49:25.086Z,34.22
2022-10-18T17:52:28.328Z,23.27
2022-10-18T17:55:31.275Z,34.75
2022-10-18T17:58:36.155Z,22.57
2022-10-18T18:01:39.692Z,20.58
2022-10-18T18:04:44.059Z,19.92
2022-10-18T18:07:48.200Z,24.75
2022-10-18T18:10:56.277Z,17.00
2022-10-18T18:13:59.925Z,16.43
2022-10-18T18:17:03.970Z,19.92
2022-10-18T18:20:08.322Z,19.13
2022-10-18T18:23:12.263Z,16.77
2022-10-18T18:26:15.985Z,18.55
2022-10-18T18:29:19.346Z,14.93
2022-10-18T18:32:22.584Z,14.73
2022-10-18T18:35:25.854Z,17.88
2022-10-18T18:38:28.753Z,15.15
2022-10-18T18:41:33.430Z,14.68
2022-10-18T18:44:37.337Z,20.47
2022-10-18T18:47:40.948Z,20.45
2022-10-18T18:50:50.474Z,19.80
2022-10-18T18:53:54.308Z,13.80
2022-10-18T18:56:58.826Z,20.30
2022-10-18T19:00:02.474Z,22.30
2022-10-18T19:03:06.429Z,19.50
2022-10-18T19:06:14.265Z,12.27
2022-10-18T19:09:23.482Z,17.40
2022-10-18T19:12:26.764Z,16.98
2022-10-18T19:15:31.119Z,14.17
2022-10-18T19:18:35.908Z,12.10
2022-10-18T19:21:48.461Z,11.82
2022-10-18T19:24:52.084Z,20.55
2022-10-18T19:27:55.339Z,16.33
2022-10-18T19:30:59.517Z,12.53
2022-10-18T19:34:08.735Z,13.13
2022-10-18T19:37:13.456Z,11.30
2022-10-18T19:40:16.811Z,12.60
2022-10-18T19:43:19.672Z,10.27
2022-10-18T19:46:22.728Z,12.37
2022-10-18T19:49:26.361Z,7.23
2022-10-18T19:52:29.820Z,10.10
2022-10-18T19:55:35.523Z,12.93
2022-10-18T19:58:38.372Z,23.48
2022-10-18T20:01:41.435Z,25.43
2022-10-18T20:04:45.180Z,25.87
2022-10-18T20:07:48.189Z,24.65
2022-10-18T20:10:51.588Z,12.95
2022-10-18T20:13:56.660Z,22.05
2022-10-18T20:17:00.394Z,19.07
2022-10-18T20:20:04.516Z,13.10
2022-10-18T20:23:08.145Z,11.38
2022-10-18T20:26:18.178Z,11.73
2022-10-18T20:29:25.867Z,11.50
2022-10-18T20:32:29.970Z,12.63
2022-10-18T20:35:33.138Z,9.97
2022-10-18T20:38:38.526Z,11.40
2022-10-18T20:41:42.277Z,9.90
2022-10-18T20:44:47.863Z,12.20
2022-10-18T20:47:51.433Z,10.90
2022-10-18T20:50:55.443Z,11.10
2022-10-18T20:54:00.448Z,15.32
2022-10-18T20:57:04.835Z,11.98
2022-10-18T21:00:11.941Z,11.63
2022-10-18T21:03:15.860Z,12.17
2022-10-18T21:06:22.651Z,15.37
2022-10-18T21:09:26.209Z,14.45
2022-10-18T21:12:30.037Z,14.77
2022-10-18T21:15:34.032Z,9.43
2022-10-18T21:18:40.872Z,15.97
2022-10-18T21:21:46.728Z,17.47
2022-10-18T21:24:51.358Z,15.13
2022-10-18T21:27:55.658Z,13.30
2022-10-18T21:31:13.192Z,13.57
2022-10-18T21:34:18.491Z,14.87
2022-10-18T21:37:22.215Z,19.77
2022-10-18T21:40:25.589Z,12.27
2022-10-18T21:43:28.781Z,20.70
2022-10-18T21:46:32.774Z,12.57
2022-10-18T21:49:36.402Z,16.47
2022-10-18T21:52:40.323Z,18.50
2022-10-18T21:55:43.851Z,13.93
2022-10-18T21:58:47.326Z,11.65
2022-10-18T22:01:52.791Z,23.00
2022-10-18T22:04:55.821Z,12.57
2022-10-18T22:07:59.528Z,22.00
2022-10-18T22:11:03.915Z,14.18
2022-10-18T22:14:07.572Z,13.18
2022-10-18T22:17:11.475Z,15.25
2022-10-18T22:20:15.195Z,14.87
2022-10-18T22:23:18.447Z,12.70
2022-10-18T22:26:22.726Z,18.27
2022-10-18T22:29:26.375Z,15.35
2022-10-18T22:32:29.314Z,22.92
2022-10-18T22:35:35.117Z,21.70
2022-10-18T22:38:39.089Z,23.43
2022-10-18T22:41:43.906Z,17.98
2022-10-18T22:44:47.483Z,15.90
2022-10-18T22:47:51.076Z,19.20
2022-10-18T22:50:54.749Z,22.77
2022-10-18T22:53:58.471Z,18.50
2022-10-18T22:57:02.129Z,23.85
2022-10-18T23:00:06.774Z,27.67
2022-10-18T23:03:10.228Z,28.98
2022-10-18T23:06:22.818Z,24.27
2022-10-18T23:09:26.641Z,19.10
2022-10-18T23:12:29.641Z,20.95
2022-10-18T23:15:33.673Z,18.42
2022-10-18T23:18:36.953Z,15.20
2022-10-18T23:21:39.926Z,19.17
2022-10-18T23:24:43.178Z,17.80
2022-10-18T23:27:46.669Z,21.02
2022-10-18T23:30:50.623Z,20.65
2022-10-18T23:33:56.758Z,17.60
2022-10-18T23:37:00.320Z,15.80
2022-10-18T23:40:04.092Z,16.97
2022-10-18T23:43:07.637Z,15.02
2022-10-18T23:46:12.410Z,16.40
2022-10-18T23:49:15.775Z,14.30
2022-10-18T23:52:18.950Z,20.83
2022-10-18T23:55:22.585Z,17.20
2022-10-18T23:58:26.007Z,16.83
